Domov               UVHVVR             MKGP            O straneh              
ZDRAVSTVENO VARSTVO RASTLIN
  MREŽA AGROMET. POSTAJ
 ► PROGNOSTIČNA OBVESTILA
AGROMETEOROLOŠKI PODATKI -
ARSO
OBVLADOVANJE TVEGANJ ZARADI
NEUGODNIH VREMENSKIH RAZMER
  ► NARAVNE NESREČE
  ► SUŠA/MOČA
  ► NAMAKANJE
  ► ŽLED (gozdarstvo)
KARTOGRAFSKI PRIKAZI
SPLETNE POVEZAVE
PROJEKTI IN PUBLIKACIJE

AGROMETEOROLOŠKA MREŽA: VREMENSKE POSTAJE IN FENOLOŠKA OPAZOVANJA

Pregled podatkov za lokacijo Dragonja, meteorološka postaja 42389

Pregled senzorjev na lokaciji

ID Ime Zadnja
vrednost
Datum
zadnje
spremembe
Tip
senzorja
2098 Padavine (mm) 0 mm 19.2.2018 06:30 Rain-O-Matic
2096 Relativna vlaga 2 m (% RH) 61,54 % RH 19.2.2018 06:30 50YA
2095 Temperatura 2 m (°C) 3,31 °C 19.2.2018 06:30 50YA

Pregled podatkov zadnjih 24 ur

Zap.
št.
Datum in čas Dragonja
Padavine Relativna
vlaga
2
m
Temperatura
2
m
1 19.2.2018 07:00
2 19.2.2018 06:30 0 61,5 3,3
3 19.2.2018 06:00 0 59,6 3,7
4 19.2.2018 05:30 0 58,5 3,9
5 19.2.2018 05:00 0 55,6 4,4
6 19.2.2018 04:30 0 55,8 4,3
7 19.2.2018 04:00 0 55,4 4,4
8 19.2.2018 03:30 0 55,5 4,3
9 19.2.2018 03:00 0 57,5 4,1
10 19.2.2018 02:30 0 58,8 4,1
11 19.2.2018 02:00 0 59 4,2
12 19.2.2018 01:30 0 58,2 4,5
13 19.2.2018 01:00 0 55,6 4,8
14 19.2.2018 00:30 0 55,2 4,9
15 19.2.2018 00:00 0 58 4,7
16 18.2.2018 23:30 0 67,7 3,9
17 18.2.2018 23:00 0 72,7 3,5
18 18.2.2018 22:30 0 71,2 3,6
19 18.2.2018 22:00 0 72,1 3,6
20 18.2.2018 21:30 0 68,5 4
21 18.2.2018 21:00 0 61,6 4,7
22 18.2.2018 20:30 0 55,6 5,2
23 18.2.2018 20:00 0 54,8 5,3
24 18.2.2018 19:30 0 55,1 5,4
25 18.2.2018 19:00 0 54,5 5,5
26 18.2.2018 18:30 0 55,8 5,4
27 18.2.2018 18:00 0 56,6 5,4
28 18.2.2018 17:30 0 56,3 5,5
29 18.2.2018 17:00 0 59,3 5,5
30 18.2.2018 16:30 0 60,9 5,5
31 18.2.2018 16:00 0 63,1 5,4
32 18.2.2018 15:30 0 62,9 5,5
33 18.2.2018 15:00 0 64,8 5,4
34 18.2.2018 14:30 0 68,8 5,3
35 18.2.2018 14:00 0 72,2 5
36 18.2.2018 13:30 0,2 74,8 4,9
37 18.2.2018 13:00 0,2 75,7 4,9
38 18.2.2018 12:30 0,2 73 5,2
39 18.2.2018 12:00 0 69 5,9
40 18.2.2018 11:30 0 65,3 6,4
41 18.2.2018 11:00 0 65,6 6,3
42 18.2.2018 10:30 0 73,2 5,9
43 18.2.2018 10:00 0,2 85,7 5,4
44 18.2.2018 09:30 1,4 86,4 5,4
45 18.2.2018 09:00 1,6 86,6 5,8
46 18.2.2018 08:30 1 84,1 6,3
47 18.2.2018 08:00 0,8 85,5 6,4
48 18.2.2018 07:30 0,6 97,3 5,7
© 2011 Ministrstvo za kmetijstvo, gozdarstvo in prehrano. Vse pravice pridržane.